createdAt,value
2023-04-18T00:01:38.851Z,92785.34
2023-04-18T00:04:06.691Z,92787.94
2023-04-18T00:06:36.232Z,92787.19
2023-04-18T00:09:04.346Z,92772.12
2023-04-18T00:11:32.060Z,92789.00
2023-04-18T00:13:59.633Z,92778.84
2023-04-18T00:16:28.449Z,92785.28
2023-04-18T00:18:57.343Z,92783.66
2023-04-18T00:21:25.901Z,92779.97
2023-04-18T00:23:53.191Z,92782.50
2023-04-18T00:26:20.863Z,92785.56
2023-04-18T00:28:48.270Z,92784.56
2023-04-18T00:31:15.598Z,92784.25
2023-04-18T00:33:43.136Z,92784.28
2023-04-18T00:36:10.610Z,92786.38
2023-04-18T00:38:37.895Z,92777.34
2023-04-18T00:41:07.558Z,92777.47
2023-04-18T00:43:35.531Z,92773.66
2023-04-18T00:46:02.818Z,92773.28
2023-04-18T00:48:31.206Z,92762.84
2023-04-18T00:51:00.427Z,92766.56
2023-04-18T00:53:28.679Z,92761.66
2023-04-18T00:55:56.284Z,92767.37
2023-04-18T00:58:24.956Z,92764.50
2023-04-18T01:00:52.421Z,92763.16
2023-04-18T01:03:20.180Z,92766.81
2023-04-18T01:05:47.535Z,92757.69
2023-04-18T01:08:14.948Z,92766.91
2023-04-18T01:10:42.707Z,92766.81
2023-04-18T01:13:11.891Z,92769.31
2023-04-18T01:15:47.926Z,92769.31
2023-04-18T01:18:19.290Z,92766.13
2023-04-18T01:20:50.405Z,92760.28
2023-04-18T01:23:20.257Z,92767.75
2023-04-18T01:25:51.196Z,92759.47
2023-04-18T01:28:21.500Z,92753.97
2023-04-18T01:30:49.044Z,92756.69
2023-04-18T01:33:16.458Z,92749.09
2023-04-18T01:35:46.112Z,92754.81
2023-04-18T01:38:13.289Z,92749.00
2023-04-18T01:40:40.572Z,92750.06
2023-04-18T01:43:08.170Z,92755.53
2023-04-18T01:45:37.935Z,92747.75
2023-04-18T01:48:05.445Z,92745.19
2023-04-18T01:50:33.491Z,92748.31
2023-04-18T01:53:00.730Z,92746.59
2023-04-18T01:55:27.999Z,92747.38
2023-04-18T01:57:55.671Z,92752.97
2023-04-18T02:00:23.226Z,92753.56
2023-04-18T02:02:50.763Z,92751.63
2023-04-18T02:05:21.114Z,92749.66
2023-04-18T02:07:50.379Z,92760.84
2023-04-18T02:10:19.111Z,92760.69
2023-04-18T02:12:47.028Z,92764.53
2023-04-18T02:15:14.442Z,92761.94
2023-04-18T02:17:42.478Z,92765.81
2023-04-18T02:20:11.004Z,92760.03
2023-04-18T02:22:39.687Z,92769.44
2023-04-18T02:25:08.064Z,92763.72
2023-04-18T02:27:35.351Z,92767.44
2023-04-18T02:30:02.793Z,92768.19
2023-04-18T02:32:33.756Z,92759.69
2023-04-18T02:35:02.094Z,92761.75
2023-04-18T02:37:30.287Z,92763.78
2023-04-18T02:39:57.600Z,92764.72
2023-04-18T02:42:28.519Z,92766.03
2023-04-18T02:44:55.997Z,92768.87
2023-04-18T02:47:23.497Z,92768.66
2023-04-18T02:49:51.177Z,92757.38
2023-04-18T02:52:18.958Z,92770.94
2023-04-18T02:54:46.398Z,92771.44
2023-04-18T02:57:14.071Z,92769.63
2023-04-18T02:59:42.488Z,92770.16
2023-04-18T03:02:11.218Z,92769.47
2023-04-18T03:04:39.078Z,92770.84
2023-04-18T03:07:07.139Z,92767.31
2023-04-18T03:09:35.451Z,92774.47
2023-04-18T03:12:05.914Z,92765.53
2023-04-18T03:14:34.379Z,92771.84
2023-04-18T03:17:01.675Z,92778.84
2023-04-18T03:19:29.345Z,92776.19
2023-04-18T03:21:58.204Z,92779.94
2023-04-18T03:24:25.575Z,92780.28
2023-04-18T03:26:53.352Z,92787.28
2023-04-18T03:29:21.677Z,92791.00
2023-04-18T03:31:49.053Z,92785.69
2023-04-18T03:34:16.616Z,92791.13
2023-04-18T03:36:46.595Z,92786.16
2023-04-18T03:39:15.592Z,92790.31
2023-04-18T03:41:43.006Z,92790.50
2023-04-18T03:44:18.818Z,92782.50
2023-04-18T03:46:46.764Z,92789.81
2023-04-18T03:49:14.483Z,92790.84
2023-04-18T03:51:50.181Z,92789.16
2023-04-18T03:54:18.778Z,92791.88
2023-04-18T03:56:46.515Z,92794.47
2023-04-18T03:59:14.106Z,92794.78
2023-04-18T04:01:42.706Z,92797.41
2023-04-18T04:04:12.355Z,92789.72
2023-04-18T04:06:39.998Z,92792.06
2023-04-18T04:09:08.011Z,92795.16
2023-04-18T04:11:35.690Z,92795.34
2023-04-18T04:14:03.708Z,92803.63
2023-04-18T04:16:31.789Z,92798.78
2023-04-18T04:18:59.973Z,92807.44
2023-04-18T04:21:28.992Z,92810.03
2023-04-18T04:23:56.551Z,92812.00
2023-04-18T04:26:26.430Z,92816.75
2023-04-18T04:28:54.532Z,92815.41
2023-04-18T04:31:22.522Z,92813.09
2023-04-18T04:33:50.858Z,92815.34
2023-04-18T04:36:20.831Z,92814.75
2023-04-18T04:38:48.473Z,92821.66
2023-04-18T04:41:17.166Z,92821.91
2023-04-18T04:43:46.736Z,92820.81
2023-04-18T04:46:16.488Z,92815.13
2023-04-18T04:48:46.997Z,92820.75
2023-04-18T04:51:17.865Z,92826.28
2023-04-18T04:53:46.315Z,92826.66
2023-04-18T04:56:13.823Z,92833.47
2023-04-18T04:58:46.582Z,92837.50
2023-04-18T05:01:17.349Z,92845.09
2023-04-18T05:03:45.207Z,92842.47
2023-04-18T05:06:12.950Z,92849.44
2023-04-18T05:08:40.991Z,92832.19
2023-04-18T05:11:08.354Z,92848.69
2023-04-18T05:13:37.405Z,92847.22
2023-04-18T05:16:06.142Z,92846.72
2023-04-18T05:18:45.050Z,92849.03
2023-04-18T05:24:07.473Z,92856.25
2023-04-18T05:26:37.786Z,92841.47
2023-04-18T05:29:05.144Z,92845.94
2023-04-18T05:31:33.577Z,92845.03
2023-04-18T05:34:01.268Z,92847.12
2023-04-18T05:36:29.001Z,92837.37
2023-04-18T05:38:56.713Z,92839.81
2023-04-18T05:41:53.668Z,92850.03
2023-04-18T05:44:29.539Z,92846.78
2023-04-18T05:46:59.512Z,92856.81
2023-04-18T05:49:27.433Z,92855.22
2023-04-18T05:51:54.823Z,92859.84
2023-04-18T05:54:22.457Z,92864.34
2023-04-18T05:56:49.781Z,92862.34
2023-04-18T05:59:17.342Z,92860.19
2023-04-18T06:01:45.029Z,92861.13
2023-04-18T06:04:13.075Z,92855.47
2023-04-18T06:06:41.054Z,92864.31
2023-04-18T06:09:28.522Z,92870.69
2023-04-18T06:11:58.455Z,92869.44
2023-04-18T06:14:26.318Z,92864.44
2023-04-18T06:16:54.162Z,92863.66
2023-04-18T06:19:23.674Z,92870.84
2023-04-18T06:21:51.480Z,92865.00
2023-04-18T06:24:19.043Z,92860.63
2023-04-18T06:26:49.190Z,92851.50
2023-04-18T06:29:18.566Z,92861.72
2023-04-18T06:31:48.698Z,92854.50
2023-04-18T06:34:17.225Z,92855.28
2023-04-18T06:36:44.677Z,92857.34
2023-04-18T06:39:12.724Z,92867.09
2023-04-18T06:41:41.544Z,92856.91
2023-04-18T06:44:09.075Z,92857.16
2023-04-18T06:46:36.436Z,92860.75
2023-04-18T06:49:07.159Z,92851.53
2023-04-18T06:51:36.955Z,92858.47
2023-04-18T06:54:06.408Z,92867.31
2023-04-18T06:56:36.631Z,92862.81
2023-04-18T06:59:03.918Z,92867.25
2023-04-18T07:01:50.640Z,92869.19
2023-04-18T07:04:20.651Z,92869.38
2023-04-18T07:06:53.184Z,92871.78
2023-04-18T07:09:43.655Z,92853.09
2023-04-18T07:12:20.034Z,92874.22
2023-04-18T07:14:49.733Z,92861.72
2023-04-18T07:17:18.434Z,92869.66
2023-04-18T07:19:46.030Z,92874.44
2023-04-18T07:22:19.567Z,92861.63
2023-04-18T07:24:50.141Z,92878.78
2023-04-18T07:27:17.602Z,92872.59
2023-04-18T07:29:45.775Z,92882.06
2023-04-18T07:32:14.407Z,92878.31
2023-04-18T07:34:42.126Z,92883.09
2023-04-18T07:37:15.043Z,92880.13
2023-04-18T07:39:46.403Z,92874.66
2023-04-18T07:42:15.414Z,92877.00
2023-04-18T07:44:43.933Z,92882.84
2023-04-18T07:47:12.862Z,92879.81
2023-04-18T07:49:46.142Z,92880.69
2023-04-18T07:52:17.655Z,92882.31
2023-04-18T07:54:44.956Z,92882.34
2023-04-18T07:57:26.021Z,92889.75
2023-04-18T07:59:58.892Z,92895.59
2023-04-18T08:02:27.579Z,92890.25
2023-04-18T08:04:58.697Z,92881.22
2023-04-18T08:07:31.412Z,92898.59
2023-04-18T08:10:00.448Z,92880.94
2023-04-18T08:12:33.973Z,92898.63
2023-04-18T08:15:04.211Z,92899.41
2023-04-18T08:17:45.005Z,92898.72
2023-04-18T08:20:41.169Z,92903.31
2023-04-18T08:23:13.088Z,92901.50
2023-04-18T08:25:47.472Z,92887.06
2023-04-18T08:28:24.160Z,92898.37
2023-04-18T08:30:58.905Z,92908.28
2023-04-18T08:33:30.738Z,92892.94
2023-04-18T08:35:59.802Z,92894.75
2023-04-18T08:38:30.271Z,92905.84
2023-04-18T08:40:58.769Z,92901.78
2023-04-18T08:43:26.589Z,92904.97
2023-04-18T08:46:01.202Z,92902.47
2023-04-18T08:48:29.440Z,92897.22
2023-04-18T08:50:58.748Z,92898.72
2023-04-18T08:53:29.178Z,92891.09
2023-04-18T08:56:07.830Z,92896.84
2023-04-18T08:58:42.679Z,92897.50
2023-04-18T09:01:13.744Z,92885.75
2023-04-18T09:03:43.347Z,92884.03
2023-04-18T09:06:16.522Z,92883.06
2023-04-18T09:08:44.846Z,92890.41
2023-04-18T09:11:24.226Z,92883.88
2023-04-18T09:13:53.437Z,92888.81
2023-04-18T09:16:23.130Z,92890.41
2023-04-18T09:19:12.571Z,92887.56
2023-04-18T09:21:58.840Z,92876.88
2023-04-18T09:24:27.270Z,92878.12
2023-04-18T09:26:57.107Z,92873.19
2023-04-18T09:29:47.012Z,92863.41
2023-04-18T09:32:25.207Z,92863.19
2023-04-18T09:35:04.886Z,92867.69
2023-04-18T09:37:32.846Z,92864.00
2023-04-18T09:40:00.180Z,92869.00
2023-04-18T09:42:35.972Z,92871.34
2023-04-18T09:45:17.106Z,92864.78
2023-04-18T09:47:46.292Z,92871.88
2023-04-18T09:50:16.968Z,92852.19
2023-04-18T09:52:46.751Z,92867.94
2023-04-18T09:55:25.789Z,92874.53
2023-04-18T09:57:54.105Z,92867.69
2023-04-18T10:00:24.251Z,92869.25
2023-04-18T10:03:04.989Z,92869.25
2023-04-18T10:05:34.912Z,92866.63
2023-04-18T10:08:03.610Z,92862.69
2023-04-18T10:10:31.192Z,92866.87
2023-04-18T10:13:00.549Z,92868.50
2023-04-18T10:15:30.081Z,92872.16
2023-04-18T10:18:05.815Z,92871.09
2023-04-18T10:20:35.588Z,92863.75
2023-04-18T10:23:32.646Z,92865.31
2023-04-18T10:26:01.135Z,92862.16
2023-04-18T10:28:56.811Z,92855.06
2023-04-18T10:31:29.514Z,92852.69
2023-04-18T10:34:05.728Z,92854.84
2023-04-18T10:36:34.070Z,92841.41
2023-04-18T10:39:30.161Z,92844.31
2023-04-18T10:41:57.846Z,92841.84
2023-04-18T10:44:25.848Z,92843.91
2023-04-18T10:46:53.247Z,92848.09
2023-04-18T10:49:26.405Z,92841.81
2023-04-18T10:51:56.866Z,92839.03
2023-04-18T10:55:02.217Z,92837.34
2023-04-18T10:57:40.074Z,92834.47
2023-04-18T11:00:31.528Z,92830.75
2023-04-18T11:03:00.847Z,92819.56
2023-04-18T11:05:30.940Z,92834.19
2023-04-18T11:07:58.340Z,92820.87
2023-04-18T11:10:27.119Z,92831.38
2023-04-18T11:13:26.182Z,92829.53
2023-04-18T11:15:53.882Z,92832.72
2023-04-18T11:18:22.324Z,92836.22
2023-04-18T11:20:59.273Z,92834.16
2023-04-18T11:23:27.576Z,92832.72
2023-04-18T11:25:57.049Z,92830.84
2023-04-18T11:28:27.456Z,92832.66
2023-04-18T11:30:59.273Z,92832.94
2023-04-18T11:33:28.671Z,92824.56
2023-04-18T11:36:01.142Z,92830.09
2023-04-18T11:38:31.053Z,92828.47
2023-04-18T11:40:59.106Z,92824.25
2023-04-18T11:43:27.682Z,92819.28
2023-04-18T11:45:56.851Z,92813.09
2023-04-18T11:48:34.064Z,92811.81
2023-04-18T11:51:01.561Z,92822.38
2023-04-18T11:53:37.141Z,92824.53
2023-04-18T11:56:05.744Z,92816.94
2023-04-18T11:58:34.360Z,92818.50
2023-04-18T12:01:21.967Z,92813.94
2023-04-18T12:04:04.650Z,92815.06
2023-04-18T12:06:56.990Z,92810.09
2023-04-18T12:09:25.363Z,92816.06
2023-04-18T12:12:03.308Z,92807.06
2023-04-18T12:14:31.026Z,92804.28
2023-04-18T12:16:58.514Z,92811.31
2023-04-18T12:19:28.369Z,92807.63
2023-04-18T12:22:01.598Z,92809.53
2023-04-18T12:24:29.217Z,92804.81
2023-04-18T12:26:58.198Z,92802.72
2023-04-18T12:29:26.159Z,92803.81
2023-04-18T12:31:53.511Z,92797.50
2023-04-18T12:34:21.631Z,92808.25
2023-04-18T12:36:48.935Z,92797.78
2023-04-18T12:39:16.366Z,92799.38
2023-04-18T12:41:44.291Z,92802.81
2023-04-18T12:44:11.769Z,92805.41
2023-04-18T12:46:39.156Z,92800.41
2023-04-18T12:49:06.953Z,92799.00
2023-04-18T12:51:34.376Z,92809.53
2023-04-18T12:54:01.863Z,92806.44
2023-04-18T12:56:29.602Z,92795.47
2023-04-18T12:58:56.840Z,92800.13
2023-04-18T13:01:24.145Z,92800.94
2023-04-18T13:04:03.932Z,92786.44
2023-04-18T13:06:38.757Z,92797.50
2023-04-18T13:09:06.449Z,92804.09
2023-04-18T13:11:33.726Z,92804.31
2023-04-18T13:14:01.060Z,92788.69
2023-04-18T13:16:29.080Z,92797.66
2023-04-18T13:18:56.350Z,92799.66
2023-04-18T13:21:25.241Z,92800.69
2023-04-18T13:23:52.896Z,92792.13
2023-04-18T13:26:20.758Z,92793.53
2023-04-18T13:28:48.081Z,92795.16
2023-04-18T13:31:17.242Z,92801.69
2023-04-18T13:33:44.673Z,92803.84
2023-04-18T13:36:12.006Z,92801.84
2023-04-18T13:38:40.088Z,92803.16
2023-04-18T13:41:12.703Z,92811.06
2023-04-18T13:43:41.293Z,92811.16
2023-04-18T13:46:08.741Z,92815.06
2023-04-18T13:48:36.432Z,92814.09
2023-04-18T13:51:04.200Z,92812.28
2023-04-18T13:53:31.551Z,92812.97
2023-04-18T13:55:59.315Z,92813.00
2023-04-18T13:58:26.956Z,92818.97
2023-04-18T14:00:54.471Z,92825.34
2023-04-18T14:03:22.595Z,92830.88
2023-04-18T14:05:50.033Z,92830.66
2023-04-18T14:08:17.376Z,92836.44
2023-04-18T14:10:45.004Z,92840.06
2023-04-18T14:13:12.348Z,92847.06
2023-04-18T14:15:39.795Z,92843.06
2023-04-18T14:18:07.420Z,92845.50
2023-04-18T14:20:36.227Z,92837.63
2023-04-18T14:23:03.605Z,92840.56
2023-04-18T14:25:31.258Z,92833.22
2023-04-18T14:28:11.104Z,92844.78
2023-04-18T14:30:40.210Z,92846.72
2023-04-18T14:33:09.792Z,92848.31
2023-04-18T14:35:37.439Z,92854.41
2023-04-18T14:38:05.229Z,92852.09
2023-04-18T14:40:33.292Z,92858.28
2023-04-18T14:43:00.841Z,92855.59
2023-04-18T14:45:28.619Z,92855.06
2023-04-18T14:47:56.155Z,92859.25
2023-04-18T14:50:23.643Z,92863.94
2023-04-18T14:52:51.805Z,92861.56
2023-04-18T14:55:22.284Z,92863.34
2023-04-18T14:57:49.632Z,92859.09
2023-04-18T15:00:17.594Z,92849.91
2023-04-18T15:02:45.047Z,92855.44
2023-04-18T15:05:13.339Z,92867.69
2023-04-18T15:07:43.078Z,92867.31
2023-04-18T15:10:13.140Z,92867.47
2023-04-18T15:12:41.804Z,92870.56
2023-04-18T15:15:09.557Z,92868.47
2023-04-18T15:17:36.899Z,92871.53
2023-04-18T15:20:07.379Z,92862.47
2023-04-18T15:22:35.863Z,92866.59
2023-04-18T15:25:05.732Z,92871.56
2023-04-18T15:27:33.655Z,92875.03
2023-04-18T15:30:01.154Z,92872.56
2023-04-18T15:32:28.478Z,92869.09
2023-04-18T15:34:56.585Z,92882.31
2023-04-18T15:37:26.512Z,92876.81
2023-04-18T15:39:53.770Z,92875.91
2023-04-18T15:42:21.344Z,92877.69
2023-04-18T15:44:49.490Z,92880.53
2023-04-18T15:47:17.285Z,92878.62
2023-04-18T15:49:44.899Z,92880.06
2023-04-18T15:52:13.804Z,92881.78
2023-04-18T15:54:42.514Z,92885.28
2023-04-18T15:57:11.084Z,92891.91
2023-04-18T15:59:38.421Z,92893.47
2023-04-18T16:02:07.455Z,92886.78
2023-04-18T16:04:35.091Z,92890.28
2023-04-18T16:07:03.231Z,92890.56
2023-04-18T16:09:30.923Z,92900.44
2023-04-18T16:11:58.731Z,92900.31
2023-04-18T16:14:25.975Z,92898.13
2023-04-18T16:16:55.172Z,92904.25
2023-04-18T16:19:22.829Z,92903.06
2023-04-18T16:21:50.430Z,92910.28
2023-04-18T16:24:17.827Z,92918.97
2023-04-18T16:26:45.520Z,92910.69
2023-04-18T16:29:12.816Z,92911.97
2023-04-18T16:31:41.635Z,92912.09
2023-04-18T16:34:09.919Z,92908.75
2023-04-18T16:36:37.325Z,92913.34
2023-04-18T16:39:04.945Z,92915.00
2023-04-18T16:41:32.713Z,92915.59
2023-04-18T16:43:59.961Z,92921.06
2023-04-18T16:46:31.577Z,92918.97
2023-04-18T16:49:06.154Z,92918.56
2023-04-18T16:51:40.309Z,92914.91
2023-04-18T16:54:09.324Z,92922.75
2023-04-18T16:56:40.443Z,92923.31
2023-04-18T16:59:12.677Z,92922.47
2023-04-18T17:01:42.450Z,92925.97
2023-04-18T17:04:15.962Z,92927.13
2023-04-18T17:06:47.943Z,92932.97
2023-04-18T17:09:17.195Z,92921.47
2023-04-18T17:11:44.617Z,92932.06
2023-04-18T17:14:15.400Z,92940.41
2023-04-18T17:16:43.949Z,92935.19
2023-04-18T17:19:11.914Z,92945.94
2023-04-18T17:21:39.449Z,92939.16
2023-04-18T17:24:08.237Z,92945.25
2023-04-18T17:26:40.124Z,92948.66
2023-04-18T17:29:08.718Z,92948.94
2023-04-18T17:31:36.633Z,92951.81
2023-04-18T17:34:04.123Z,92943.72
2023-04-18T17:36:32.866Z,92952.88
2023-04-18T17:39:07.643Z,92949.44
2023-04-18T17:41:37.965Z,92953.94
2023-04-18T17:44:07.718Z,92948.03
2023-04-18T17:46:35.482Z,92958.28
2023-04-18T17:49:02.945Z,92961.25
2023-04-18T17:51:31.524Z,92965.66
2023-04-18T17:53:59.746Z,92974.81
2023-04-18T17:56:28.051Z,92970.72
2023-04-18T17:58:56.809Z,92969.91
2023-04-18T18:01:26.361Z,92967.63
2023-04-18T18:03:54.390Z,92989.53
2023-04-18T18:06:22.707Z,92985.81
2023-04-18T18:08:51.479Z,92991.59
2023-04-18T18:11:19.263Z,92983.09
2023-04-18T18:13:46.864Z,92985.06
2023-04-18T18:16:14.395Z,92995.22
2023-04-18T18:18:42.227Z,92996.44
2023-04-18T18:21:10.752Z,93006.66
2023-04-18T18:23:38.158Z,93000.25
2023-04-18T18:26:06.783Z,93001.84
2023-04-18T18:28:34.266Z,93004.59
2023-04-18T18:31:01.915Z,93003.13
2023-04-18T18:33:29.718Z,93002.44
2023-04-18T18:35:58.539Z,92998.50
2023-04-18T18:38:26.164Z,92999.78
2023-04-18T18:40:53.873Z,93004.37
2023-04-18T18:43:21.183Z,93007.56
2023-04-18T18:45:48.524Z,92999.22
2023-04-18T18:48:16.224Z,92993.34
2023-04-18T18:50:43.748Z,93009.16
2023-04-18T18:53:11.181Z,93001.97
2023-04-18T18:55:38.966Z,92999.28
2023-04-18T18:58:08.084Z,92999.03
2023-04-18T19:00:35.680Z,92999.28
2023-04-18T19:03:03.702Z,92998.69
2023-04-18T19:05:31.082Z,93008.69
2023-04-18T19:07:58.568Z,93007.72
2023-04-18T19:10:26.513Z,93004.59
2023-04-18T19:12:53.938Z,93009.97
2023-04-18T19:15:21.362Z,93010.59
2023-04-18T19:17:49.641Z,93001.88
2023-04-18T19:20:17.426Z,93008.25
2023-04-18T19:22:44.750Z,93015.12
2023-04-18T19:25:12.676Z,93006.50
2023-04-18T19:27:40.082Z,93005.53
2023-04-18T19:30:08.088Z,93011.22
2023-04-18T19:32:36.183Z,93002.34
2023-04-18T19:35:04.812Z,93011.91
2023-04-18T19:37:32.179Z,93013.53
2023-04-18T19:39:59.890Z,93012.03
2023-04-18T19:42:27.467Z,93012.81
2023-04-18T19:44:54.768Z,93012.66
2023-04-18T19:47:22.503Z,93016.47
2023-04-18T19:49:49.866Z,93009.88
2023-04-18T19:52:18.601Z,93015.72
2023-04-18T19:54:46.223Z,93019.34
2023-04-18T19:57:13.587Z,93015.75
2023-04-18T19:59:40.938Z,93013.22
2023-04-18T20:02:08.572Z,93015.84
2023-04-18T20:04:37.004Z,93008.50
2023-04-18T20:07:04.610Z,93007.91
2023-04-18T20:09:31.979Z,93003.81
2023-04-18T20:12:02.103Z,93009.78
2023-04-18T20:14:30.013Z,93002.84
2023-04-18T20:16:57.503Z,93002.78
2023-04-18T20:19:25.786Z,93007.09
2023-04-18T20:21:53.209Z,93004.34
2023-04-18T20:24:21.339Z,93005.13
2023-04-18T20:26:49.103Z,93001.94
2023-04-18T20:29:16.689Z,93010.81
2023-04-18T20:31:44.160Z,93003.69
2023-04-18T20:34:11.965Z,92998.19
2023-04-18T20:36:42.538Z,92991.56
2023-04-18T20:39:09.911Z,93002.66
2023-04-18T20:41:37.840Z,93000.53
2023-04-18T20:44:09.316Z,92999.91
2023-04-18T20:46:36.814Z,92999.44
2023-04-18T20:49:04.531Z,92991.03
2023-04-18T20:51:32.165Z,92994.16
2023-04-18T20:53:59.601Z,93003.00
2023-04-18T20:56:27.382Z,92992.78
2023-04-18T20:58:54.884Z,92998.16
2023-04-18T21:01:23.043Z,93000.28
2023-04-18T21:03:50.939Z,92992.62
2023-04-18T21:06:22.145Z,92996.56
2023-04-18T21:08:49.517Z,92987.50
2023-04-18T21:11:17.288Z,92991.31
2023-04-18T21:13:44.810Z,92989.75
2023-04-18T21:16:12.155Z,92983.78
2023-04-18T21:18:39.845Z,92989.84
2023-04-18T21:21:08.015Z,92978.38
2023-04-18T21:23:42.098Z,92981.34
2023-04-18T21:26:14.042Z,92978.69
2023-04-18T21:29:00.980Z,92979.09
2023-04-18T21:31:30.325Z,92972.81
2023-04-18T21:33:59.384Z,92974.88
2023-04-18T21:36:28.654Z,92974.44
2023-04-18T21:38:58.286Z,92977.38
2023-04-18T21:41:26.535Z,92976.97
2023-04-18T21:43:53.955Z,92968.88
2023-04-18T21:46:21.742Z,92977.38
2023-04-18T21:48:49.547Z,92980.84
2023-04-18T21:51:17.220Z,92971.25
2023-04-18T21:53:45.035Z,92982.25
2023-04-18T21:56:12.429Z,92978.25
2023-04-18T21:58:39.814Z,92977.88
2023-04-18T22:01:07.959Z,92974.91
2023-04-18T22:06:34.941Z,92964.44
2023-04-18T22:09:02.744Z,92964.44
2023-04-18T22:11:30.178Z,92970.28
2023-04-18T22:13:58.310Z,92966.81
2023-04-18T22:16:26.210Z,92967.59
2023-04-18T22:18:54.184Z,92965.03
2023-04-18T22:21:21.427Z,92970.16
2023-04-18T22:23:49.022Z,92967.28
2023-04-18T22:26:16.239Z,92964.47
2023-04-18T22:28:43.486Z,92967.59
2023-04-18T22:31:11.005Z,92968.06
2023-04-18T22:33:38.305Z,92970.09
2023-04-18T22:36:06.193Z,92961.19
2023-04-18T22:38:33.801Z,92957.59
2023-04-18T22:41:01.118Z,92961.06
2023-04-18T22:43:28.398Z,92957.03
2023-04-18T22:45:56.570Z,92957.50
2023-04-18T22:48:23.874Z,92951.41
2023-04-18T22:50:51.216Z,92960.81
2023-04-18T22:53:19.017Z,92952.25
2023-04-18T22:55:46.814Z,92949.75
2023-04-18T22:58:14.493Z,92954.34
2023-04-18T23:00:42.606Z,92948.88
2023-04-18T23:03:10.186Z,92942.72
2023-04-18T23:05:37.610Z,92941.91
2023-04-18T23:08:07.083Z,92942.69
2023-04-18T23:10:34.484Z,92941.59
2023-04-18T23:13:01.811Z,92944.28
2023-04-18T23:15:29.506Z,92938.03
2023-04-18T23:17:57.072Z,92935.25
2023-04-18T23:20:24.375Z,92937.88
2023-04-18T23:22:53.027Z,92934.81
2023-04-18T23:25:21.563Z,92934.09
2023-04-18T23:27:48.960Z,92934.16
2023-04-18T23:30:17.404Z,92933.28
2023-04-18T23:32:44.847Z,92936.63
2023-04-18T23:35:12.189Z,92932.38
2023-04-18T23:37:39.742Z,92935.91
2023-04-18T23:40:08.098Z,92934.72
2023-04-18T23:42:35.973Z,92932.50
2023-04-18T23:45:04.810Z,92934.56
2023-04-18T23:47:33.276Z,92929.44
2023-04-18T23:50:00.747Z,92924.22
2023-04-18T23:52:28.601Z,92920.72
2023-04-18T23:54:58.810Z,92928.25
2023-04-18T23:57:26.214Z,92921.38
2023-04-18T23:59:53.914Z,92917.78
